Welcome to Northern Hawkes Bay. New Zealand.
PWS Header
      nz Flag



Hit Counter


W3C Valid W3C Valid logo


    Wairoa

Select any of the Stations below to visit their websites.










Historic Data from Weather Underground
Select the location of interest below. Wairoa is the default. Please have patience, this Data is slow to load in.
Northern Hawkes Bay Historical Data
Daily Summary for October 12, 2018 Units:  English    Metric   Both
« Previous Day
Next Day »
Daily Weekly Monthly Yearly Custom
  High: Low: Average:
Temperature: 66.4 °F 48.2 °F 57.2 °F
Dew Point: 57.4 °F 45.1 °F 50.4 °F
Humidity: 98% 50% 80%
Wind Speed: 22.8mph 0mph 8.4mph
Wind Gust: 33.6mph - -
Wind- - WSW
Pressure: 29.8 in 29.4 in -
Precipitation: 0.53 in    
Historical Graphs
 
 
Tabular Data for October 12, 2018
Time Temperature Dew Point Pressure Wind Wind Speed Wind Gust Humidity Rainfall Rate (Hourly) solar
00:04 61.3 °F 53.8 °F 29.7 in NE 5.4 mph 8.3 mph 76% 0 in 0.00 W/m2
00:09 61.5 °F 54 °F 29.7 in NE 6 mph 10.7 mph 76% 0 in 0.00 W/m2
00:14 61.7 °F 54.3 °F 29.7 in NE 7.6 mph 10.7 mph 77% 0 in 0.00 W/m2
00:19 61.9 °F 54.7 °F 29.7 in NE 3.8 mph 14.5 mph 77% 0 in 0.00 W/m2
00:24 61.9 °F 54.7 °F 29.7 in NNE 9.8 mph 14.5 mph 77% 0 in 0.00 W/m2
00:29 61.9 °F 55 °F 29.7 in NE 5.4 mph 11.4 mph 78% 0 in 0.00 W/m2
00:34 61.7 °F 55 °F 29.7 in NE 4.5 mph 11.4 mph 79% 0 in 0.00 W/m2
00:39 61.5 °F 55.2 °F 29.7 in North 4.5 mph 9.8 mph 80% 0 in 0.00 W/m2
00:44 61.3 °F 55.6 °F 29.7 in North 6 mph 8.3 mph 81% 0 in 0.00 W/m2
00:49 61.2 °F 55.2 °F 29.7 in North 5.4 mph 9.2 mph 81% 0 in 0.00 W/m2
00:54 61.2 °F 55.6 °F 29.6 in NNE 4.5 mph 10.7 mph 82% 0 in 0.00 W/m2
00:59 61.3 °F 55.8 °F 29.6 in NNE 7.6 mph 13 mph 82% 0 in 0.00 W/m2
01:04 61.3 °F 55.8 °F 29.6 in NNE 2.2 mph 13 mph 82% 0 in 0.00 W/m2
01:09 61.2 °F 55.9 °F 29.6 in NNE 3.1 mph 13 mph 83% 0 in 0.00 W/m2
01:14 60.8 °F 55.9 °F 29.6 in NNE 3.1 mph 6.9 mph 84% 0 in 0.00 W/m2
01:19 60.4 °F 56.1 °F 29.6 in NNE 3.1 mph 5.4 mph 86% 0 in 0.00 W/m2
01:24 60.3 °F 56.5 °F 29.6 in North 3.1 mph 5.4 mph 87% 0 in 0.00 W/m2
01:29 60.1 °F 56.5 °F 29.6 in North 2.2 mph 4.5 mph 88% 0 in 0.00 W/m2
01:34 60.1 °F 56.5 °F 29.6 in North 3.8 mph 5.4 mph 88% 0 in 0.00 W/m2
01:39 60.1 °F 56.5 °F 29.6 in NNE 1.6 mph 5.4 mph 88% 0 in 0.00 W/m2
01:44 60.1 °F 56.5 °F 29.6 in NNE 0.7 mph 5.4 mph 88% 0 in 0.00 W/m2
01:49 59.9 °F 56.5 °F 29.6 in Calm   3.8 mph 88% 0 in 0.00 W/m2
01:54 59.5 °F 55.9 °F 29.6 in Calm   1.6 mph 88% 0 in 0.00 W/m2
01:59 59.4 °F 55.8 °F 29.6 in Calm     88% 0 in 0.00 W/m2
02:04 59.2 °F 56.3 °F 29.6 in Calm     90% 0 in 0.00 W/m2
02:09 58.6 °F 56.3 °F 29.6 in Calm     92% 0 in 0.00 W/m2
02:14 58.1 °F 56.1 °F 29.6 in Calm     93% 0 in 0.00 W/m2
02:19 58.1 °F 56.5 °F 29.6 in Calm   3.8 mph 94% 0 in 0.00 W/m2
02:24 58.1 °F 56.5 °F 29.6 in Calm   3.8 mph 94% 0 in 0.00 W/m2
02:29 58.1 °F 56.5 °F 29.6 in Calm     94% 0 in 0.00 W/m2
02:34 57.9 °F 56.1 °F 29.6 in Calm     94% 0 in 0.00 W/m2
02:39 57.9 °F 56.1 °F 29.6 in Calm     94% 0 in 0.00 W/m2
02:44 57.9 °F 56.5 °F 29.6 in Calm     95% 0 in 0.00 W/m2
02:49 57.9 °F 56.5 °F 29.6 in Calm     95% 0 in 0.00 W/m2
02:54 57.9 °F 56.5 °F 29.6 in Calm     95% 0 in 0.00 W/m2
02:59 57.9 °F 56.5 °F 29.6 in Calm     95% 0 in 0.00 W/m2
03:04 57.7 °F 56.3 °F 29.6 in Calm     95% 0 in 0.00 W/m2
03:09 57.7 °F 56.3 °F 29.6 in Calm     95% 0 in 0.00 W/m2
03:14 57.6 °F 56.5 °F 29.6 in Calm     96% 0 in 0.00 W/m2
03:19 57.6 °F 56.5 °F 29.5 in Calm     96% 0 in 0.00 W/m2
03:24 57.6 °F 56.5 °F 29.5 in Calm     96% 0 in 0.00 W/m2
03:29 57.9 °F 56.8 °F 29.5 in ENE 1.6 mph 3.1 mph 96% 0 in 0.00 W/m2
03:34 58.5 °F 57.4 °F 29.5 in Calm   3.8 mph 96% 0 in 0.00 W/m2
03:39 58.8 °F 57.4 °F 29.5 in Calm   3.8 mph 95% 0 in 0.00 W/m2
03:44 58.6 °F 56.8 °F 29.5 in Calm     94% 0 in 0.00 W/m2
03:49 58.5 °F 56.5 °F 29.5 in Calm     93% 0 in 0.00 W/m2
03:54 58.1 °F 55.8 °F 29.5 in Calm     92% 0 in 0.00 W/m2
03:59 58.1 °F 55.8 °F 29.5 in Calm     92% 0 in 0.00 W/m2
04:04 57.9 °F 55.9 °F 29.5 in Calm     93% 0 in 0.00 W/m2
04:09 57.7 °F 55.9 °F 29.5 in Calm     94% 0 in 0.00 W/m2
04:14 57.7 °F 55.9 °F 29.5 in SW 1.6 mph 3.1 mph 94% 0 in 0.00 W/m2
04:19 57.6 °F 55.9 °F 29.5 in Calm   3.1 mph 94% 0 in 0.00 W/m2
04:24 57.7 °F 55.9 °F 29.5 in SW 2.2 mph 3.8 mph 94% 0 in 0.00 W/m2
04:29 57.9 °F 56.1 °F 29.5 in SW 1.6 mph 3.8 mph 94% 0 in 0.00 W/m2
04:34 58.1 °F 56.5 °F 29.5 in WSW 3.8 mph 4.5 mph 94% 0 in 0.00 W/m2
04:39 58.5 °F 56.8 °F 29.5 in Calm   4.5 mph 94% 0 in 0.00 W/m2
04:44 58.5 °F 56.5 °F 29.5 in Calm   4.5 mph 93% 0 in 0.00 W/m2
04:49 58.5 °F 56.5 °F 29.5 in Calm   0.7 mph 93% 0 in 0.00 W/m2
04:54 58.5 °F 56.5 °F 29.5 in Calm     93% 0 in 0.00 W/m2
04:59 58.5 °F 56.5 °F 29.5 in NNE 2.2 mph 3.1 mph 93% 0 in 0.00 W/m2
05:02 58.5 °F 56.5 °F 29.5 in Calm   3.1 mph 93% 0 in 0.00 W/m2
05:19 58.8 °F 56.8 °F 29.5 in Calm   3.1 mph 93% 0 in 0.00 W/m2
05:24 58.6 °F 56.7 °F 29.5 in WNW 0.7 mph 3.8 mph 93% 0 in 0.00 W/m2
05:29 58.5 °F 56.5 °F 29.5 in WNW 2.2 mph 3.8 mph 93% 0 in 0.00 W/m2
05:34 58.5 °F 56.8 °F 29.5 in NNW 11.4 mph 19 mph 94% 0.01 in 0.00 W/m2
05:39 57.9 °F 55.6 °F 29.6 in NW 11.4 mph 22.1 mph 92% 0.04 in 0.00 W/m2
05:44 56.8 °F 53.2 °F 29.5 in NW 12.1 mph 22.1 mph 88% 0.05 in 0.00 W/m2
05:49 56.1 °F 52.3 °F 29.5 in NW 9.2 mph 19.7 mph 87% 0.05 in 0.00 W/m2
05:54 55.6 °F 51.8 °F 29.5 in WNW 6.9 mph 18.3 mph 87% 0.06 in 0.00 W/m2
05:59 55.2 °F 51.6 °F 29.5 in NW 3.1 mph 9.8 mph 88% 0.06 in 0.00 W/m2
06:04 55 °F 52.2 °F 29.5 in NW 5.4 mph 9.2 mph 90% 0.06 in 0.00 W/m2
06:09 54.9 °F 51.6 °F 29.5 in NW 3.8 mph 8.3 mph 89% 0.06 in 0.00 W/m2
06:14 54.5 °F 51.3 °F 29.5 in NNW 4.5 mph 12.1 mph 89% 0.06 in 0.00 W/m2
06:19 54.3 °F 51.4 °F 29.5 in NNW 4.5 mph 12.1 mph 90% 0.06 in 0.00 W/m2
06:24 54.1 °F 51.6 °F 29.5 in NNW 3.8 mph 9.2 mph 91% 0.06 in 0.00 W/m2
06:29 54 °F 51.4 °F 29.5 in NNW 2.2 mph 8.3 mph 91% 0.06 in 0.00 W/m2
06:34 53.8 °F 51.4 °F 29.5 in North 2.2 mph 5.4 mph 92% 0.05 in 0.00 W/m2
06:39 53.8 °F 51.4 °F 29.5 in NNE 2.2 mph 4.5 mph 92% 0.01 in 0.00 W/m2
06:44 53.6 °F 51.3 °F 29.5 in NNE 3.1 mph 4.5 mph 92% 0.01 in 0.00 W/m2
06:49 53.4 °F 51.6 °F 29.5 in NNE 1.6 mph 5.4 mph 94% 0.01 in 0.00 W/m2
06:54 53.4 °F 51.6 °F 29.5 in NNE 1.6 mph 5.4 mph 94% 0 in 8.00 W/m2
06:59 53.4 °F 51.6 °F 29.5 in Calm   3.8 mph 94% 0 in 5.00 W/m2
07:04 53.4 °F 51.6 °F 29.5 in Calm   2.2 mph 94% 0 in 5.00 W/m2
07:09 53.6 °F 51.6 °F 29.5 in Calm   0.7 mph 93% 0 in 11.00 W/m2
07:14 53.8 °F 51.8 °F 29.5 in Calm   0.7 mph 93% 0 in 29.00 W/m2
07:19 54 °F 52 °F 29.5 in WNW 0.7 mph 2.2 mph 93% 0 in 36.00 W/m2
07:24 54 °F 52.3 °F 29.5 in NW 3.1 mph 4.5 mph 94% 0 in 30.00 W/m2
07:29 54.3 °F 52.3 °F 29.5 in Calm   4.5 mph 93% 0 in 28.00 W/m2
07:34 54.5 °F 52.2 °F 29.5 in NW 1.6 mph 4.5 mph 92% 0 in 38.00 W/m2
07:39 54.7 °F 52.2 °F 29.5 in NW 3.1 mph 4.5 mph 91% 0 in 137.00 W/m2
07:44 55.4 °F 52.9 °F 29.5 in WNW 1.6 mph 4.5 mph 91% 0 in 65.00 W/m2
07:49 55.8 °F 52.5 °F 29.5 in NW 3.1 mph 4.5 mph 89% 0 in 64.00 W/m2
07:54 55.6 °F 52.2 °F 29.5 in NNW 2.2 mph 4.5 mph 88% 0 in 72.00 W/m2
07:59 55.6 °F 51.8 °F 29.5 in NNW 3.8 mph 6.9 mph 87% 0 in 76.00 W/m2
08:04 55.6 °F 51.3 °F 29.5 in NW 3.8 mph 7.6 mph 85% 0 in 69.00 W/m2
08:09 55.6 °F 50.5 °F 29.5 in NNW 3.8 mph 7.6 mph 83% 0 in 58.00 W/m2
08:14 56.1 °F 51.1 °F 29.5 in NNW 3.8 mph 7.6 mph 83% 0 in 161.00 W/m2
08:19 57.6 °F 51.1 °F 29.5 in NNW 3.8 mph 7.6 mph 79% 0 in 156.00 W/m2
08:24 58.1 °F 50.5 °F 29.5 in NNW 6 mph 9.2 mph 76% 0 in 196.00 W/m2
08:29 59.2 °F 49.8 °F 29.5 in NNW 6 mph 9.8 mph 71% 0.01 in 208.00 W/m2
08:34 59.5 °F 49.5 °F 29.5 in North 7.6 mph 10.7 mph 69% 0.01 in 215.00 W/m2
08:39 59.9 °F 49.3 °F 29.5 in NNW 6.9 mph 10.7 mph 68% 0.01 in 225.00 W/m2
08:44 60.1 °F 48.4 °F 29.5 in NNW 6 mph 13 mph 65% 0.01 in 178.00 W/m2
08:49 60.1 °F 47.8 °F 29.5 in NNW 7.6 mph 14.5 mph 64% 0.01 in 248.00 W/m2
08:54 60.6 °F 48.4 °F 29.5 in NNW 5.4 mph 14.5 mph 64% 0.01 in 260.00 W/m2
08:59 61.3 °F 48.2 °F 29.5 in North 9.8 mph 15.2 mph 62% 0.01 in 279.00 W/m2
09:04 61.2 °F 47.7 °F 29.5 in North 8.3 mph 15.2 mph 61% 0.01 in 89.00 W/m2
09:09 60.6 °F 47.5 °F 29.5 in NW 7.6 mph 19.7 mph 62% 0.01 in 293.00 W/m2
09:14 60.8 °F 47.7 °F 29.5 in NW 10.7 mph 19.7 mph 62% 0.01 in 225.00 W/m2
09:19 60.6 °F 47.1 °F 29.5 in NNW 6.9 mph 17.4 mph 61% 0.01 in 301.00 W/m2
09:24 61.5 °F 47.5 °F 29.5 in NNW 5.4 mph 17.4 mph 60% 0.01 in 315.00 W/m2
09:29 62.6 °F 48 °F 29.5 in NNW 8.3 mph 10.7 mph 59% 0 in 325.00 W/m2
09:34 62.4 °F 47.5 °F 29.5 in NNW 3.8 mph 17.4 mph 58% 0 in 332.00 W/m2
09:39 62.8 °F 47.8 °F 29.5 in North 9.2 mph 17.4 mph 58% 0 in 343.00 W/m2
09:44 63.1 °F 47.7 °F 29.5 in North 6 mph 15.2 mph 57% 0 in 351.00 W/m2
09:49 63.3 °F 47.5 °F 29.5 in NNE 6 mph 13.6 mph 56% 0 in 363.00 W/m2
09:54 63.1 °F 48.6 °F 29.5 in NNE 8.3 mph 15.9 mph 59% 0 in 370.00 W/m2
09:59 63.3 °F 48.4 °F 29.5 in NNW 6.9 mph 16.8 mph 58% 0 in 382.00 W/m2
10:04 64 °F 49.5 °F 29.5 in NNW 5.4 mph 16.8 mph 59% 0 in 394.00 W/m2
10:09 64.4 °F 48.9 °F 29.5 in North 5.4 mph 12.1 mph 57% 0 in 404.00 W/m2
10:14 64.4 °F 48.9 °F 29.5 in North 3.8 mph 9.2 mph 57% 0 in 128.00 W/m2
10:19 65.1 °F 49.5 °F 29.5 in North 3.8 mph 9.2 mph 57% 0 in 151.00 W/m2
10:24 64.4 °F 48.4 °F 29.5 in NW 5.4 mph 10.7 mph 56% 0 in 182.00 W/m2
10:29 63.9 °F 48.7 °F 29.5 in NW 6.9 mph 11.4 mph 58% 0 in 180.00 W/m2
10:34 63.3 °F 48.4 °F 29.5 in NW 9.8 mph 13 mph 58% 0 in 219.00 W/m2
10:39 63.3 °F 48.4 °F 29.5 in NW 6.9 mph 13 mph 58% 0 in 202.00 W/m2
10:44 63 °F 48.4 °F 29.5 in NW 5.4 mph 13 mph 59% 0 in 181.00 W/m2
10:49 62.2 °F 47.3 °F 29.5 in NW 9.2 mph 26.6 mph 58% 0 in 471.00 W/m2
10:54 62.8 °F 47.3 °F 29.5 in NW 12.1 mph 26.6 mph 57% 0 in 535.00 W/m2
10:59 63.3 °F 47.8 °F 29.5 in NW 13 mph 25.1 mph 57% 0 in 512.00 W/m2
11:04 63.7 °F 48.2 °F 29.5 in NNW 9.8 mph 25.9 mph 57% 0 in 409.00 W/m2
11:09 63.3 °F 47.8 °F 29.5 in NNW 18.3 mph 25.9 mph 57% 0 in 635.00 W/m2
11:14 64.4 °F 48.9 °F 29.5 in NNW 14.5 mph 26.6 mph 57% 0 in 703.00 W/m2
11:19 63.5 °F 48 °F 29.5 in NW 10.7 mph 26.6 mph 57% 0 in 248.00 W/m2
11:24 62.8 °F 47.8 °F 29.5 in NW 15.9 mph 25.1 mph 58% 0 in 177.00 W/m2
11:29 62.2 °F 47.7 °F 29.5 in NW 13.6 mph 25.1 mph 59% 0 in 188.00 W/m2
11:34 62.1 °F 48 °F 29.5 in NNW 12.1 mph 25.1 mph 60% 0 in 207.00 W/m2
11:39 61.9 °F 48.7 °F 29.5 in NNW 13.6 mph 21.3 mph 62% 0 in 258.00 W/m2
11:44 61.3 °F 48.2 °F 29.5 in NNW 9.8 mph 20.6 mph 62% 0 in 276.00 W/m2
11:49 61.3 °F 48.2 °F 29.5 in NW 8.3 mph 18.3 mph 62% 0 in 329.00 W/m2
11:54 61.5 °F 48.4 °F 29.5 in NW 9.8 mph 19 mph 62% 0 in 293.00 W/m2
11:59 61.7 °F 48 °F 29.5 in NNW 11.4 mph 19 mph 61% 0 in 268.00 W/m2
12:04 61.7 °F 47.7 °F 29.5 in NNW 6.9 mph 16.8 mph 60% 0 in 256.00 W/m2
12:09 61.7 °F 47.7 °F 29.5 in NNW 9.2 mph 16.8 mph 60% 0 in 228.00 W/m2
12:14 61.5 °F 47.5 °F 29.4 in NW 10.7 mph 19 mph 60% 0 in 335.00 W/m2
12:19 62.1 °F 47.7 °F 29.4 in NW 12.1 mph 19.7 mph 59% 0 in 532.00 W/m2
12:24 63.1 °F 48.9 °F 29.4 in NNW 14.5 mph 19.7 mph 60% 0 in 375.00 W/m2
12:29 63.1 °F 47.1 °F 29.4 in NW 8.3 mph 19.7 mph 56% 0 in 294.00 W/m2
12:34 62.8 °F 46.4 °F 29.4 in NNW 13 mph 21.3 mph 55% 0 in 303.00 W/m2
12:39 62.8 °F 46.9 °F 29.4 in NNW 10.7 mph 22.1 mph 56% 0 in 903.00 W/m2
12:44 64.4 °F 49.3 °F 29.5 in NNW 12.1 mph 22.1 mph 58% 0 in 839.00 W/m2
12:49 64.9 °F 48.4 °F 29.4 in NNW 8.3 mph 19.7 mph 55% 0 in 638.00 W/m2
12:54 64.9 °F 48.4 °F 29.4 in NNW 6.9 mph 20.6 mph 55% 0 in 224.00 W/m2
12:59 63.9 °F 47.8 °F 29.5 in NNW 9.2 mph 20.6 mph 56% 0 in 177.00 W/m2
13:04 63.1 °F 47.7 °F 29.5 in NNW 10.7 mph 21.3 mph 57% 0 in 231.00 W/m2
13:09 63.1 °F 48 °F 29.5 in North 9.8 mph 21.3 mph 58% 0 in 390.00 W/m2
13:14 63.3 °F 47.8 °F 29.4 in NNW 11.4 mph 17.4 mph 57% 0 in 354.00 W/m2
13:19 63.3 °F 47.5 °F 29.4 in NW 6 mph 15.9 mph 56% 0 in 870.00 W/m2
13:24 64.4 °F 48.4 °F 29.4 in NW 6 mph 15.9 mph 56% 0 in 941.00 W/m2
13:29 64.4 °F 47.8 °F 29.4 in NW 12.1 mph 23.5 mph 55% 0 in 780.00 W/m2
13:34 65.5 °F 49.8 °F 29.4 in NW 9.2 mph 23.5 mph 57% 0 in 845.00 W/m2
13:39 64.9 °F 48.4 °F 29.5 in NW 9.2 mph 15.9 mph 55% 0 in 563.00 W/m2
13:44 64.9 °F 48.9 °F 29.4 in NW 6.9 mph 15.9 mph 56% 0 in 693.00 W/m2
13:49 66 °F 49.5 °F 29.4 in NW 6.9 mph 13.6 mph 55% 0 in 624.00 W/m2
13:54 64.4 °F 47.8 °F 29.4 in NW 9.8 mph 17.4 mph 55% 0 in 516.00 W/m2
13:59 64.4 °F 47.8 °F 29.5 in NNW 7.6 mph 17.4 mph 55% 0 in 280.00 W/m2
14:04 64.2 °F 48.7 °F 29.4 in North 5.4 mph 15.9 mph 57% 0 in 192.00 W/m2
14:09 64.4 °F 49.3 °F 29.4 in North 6.9 mph 15.9 mph 58% 0 in 274.00 W/m2
14:14 64.4 °F 48.9 °F 29.4 in NNW 9.2 mph 13 mph 57% 0 in 243.00 W/m2
14:19 64.2 °F 48.2 °F 29.4 in NW 11.4 mph 18.3 mph 56% 0 in 242.00 W/m2
14:24 64.2 °F 47.7 °F 29.4 in NNW 3.8 mph 18.3 mph 55% 0 in 203.00 W/m2
14:29 64.4 °F 47.5 °F 29.4 in NW 7.6 mph 15.2 mph 54% 0 in 250.00 W/m2
14:34 65.1 °F 48 °F 29.4 in NW 6.9 mph 13.6 mph 54% 0 in 352.00 W/m2
14:39 65.5 °F 47.5 °F 29.4 in NW 13.6 mph 18.3 mph 52% 0 in 208.00 W/m2
14:44 64.4 °F 46.9 °F 29.4 in NW 7.6 mph 18.3 mph 53% 0 in 202.00 W/m2
14:49 65.1 °F 47.1 °F 29.4 in NW 9.2 mph 17.4 mph 52% 0 in 689.00 W/m2
14:54 65.5 °F 46.9 °F 29.4 in NNW 10.7 mph 15.2 mph 51% 0 in 220.00 W/m2
14:59 65.5 °F 48.4 °F 29.4 in NW 5.4 mph 15.2 mph 54% 0 in 189.00 W/m2
15:04 65.5 °F 46.9 °F 29.4 in NW 9.2 mph 19.7 mph 51% 0 in 284.00 W/m2
15:09 66.2 °F 47.7 °F 29.4 in NW 10.7 mph 19.7 mph 51% 0 in 436.00 W/m2
15:14 66.4 °F 47.1 °F 29.4 in NW 13 mph 19.7 mph 50% 0 in 252.00 W/m2
15:19 65.8 °F 47.7 °F 29.5 in NW 9.2 mph 19 mph 52% 0 in 454.00 W/m2
15:24 65.5 °F 47.5 °F 29.5 in WNW 6.9 mph 19 mph 52% 0 in 167.00 W/m2
15:29 64.4 °F 47.5 °F 29.5 in WNW 3.8 mph 14.5 mph 54% 0 in 127.00 W/m2
15:34 64.4 °F 47.8 °F 29.5 in WNW 3.1 mph 14.5 mph 55% 0 in 140.00 W/m2
15:39 64.4 °F 47.8 °F 29.5 in WNW 3.8 mph 10.7 mph 55% 0 in 81.00 W/m2
15:44 64 °F 47.1 °F 29.5 in WNW 2.2 mph 10.7 mph 54% 0 in 105.00 W/m2
15:49 63.7 °F 47.1 °F 29.5 in West 9.8 mph 12.1 mph 55% 0 in 59.00 W/m2
15:54 59.2 °F 47.8 °F 29.5 in WSW 21.3 mph 25.9 mph 66% 0 in 18.00 W/m2
15:59 55.2 °F 48.6 °F 29.5 in SW 21.3 mph 28.2 mph 78% 0 in 26.00 W/m2
16:04 54.1 °F 48.7 °F 29.5 in SSW 16.8 mph 29.8 mph 82% 0 in 46.00 W/m2
16:09 53.6 °F 49.3 °F 29.5 in SSW 13.6 mph 30.4 mph 85% 0.02 in 48.00 W/m2
16:14 52.2 °F 49.8 °F 29.5 in SSW 19 mph 30.4 mph 92% 0.06 in 52.00 W/m2
16:19 51.8 °F 50.2 °F 29.5 in SW 15.9 mph 30.4 mph 94% 0.08 in 54.00 W/m2
16:24 51.8 °F 50.7 °F 29.6 in SW 12.1 mph 30.4 mph 96% 0.09 in 29.00 W/m2
16:29 52 °F 51.3 °F 29.6 in WSW 10.7 mph 25.9 mph 97% 0.11 in 22.00 W/m2
16:34 52 °F 50.9 °F 29.6 in West 22.1 mph 28.9 mph 96% 0.11 in 37.00 W/m2
16:39 52 °F 50.5 °F 29.6 in West 15.2 mph 28.9 mph 95% 0.11 in 72.00 W/m2
16:44 52.2 °F 50.7 °F 29.6 in West 15.9 mph 28.2 mph 95% 0.12 in 53.00 W/m2
16:49 52.2 °F 50.5 °F 29.6 in WSW 13 mph 25.9 mph 94% 0.12 in 100.00 W/m2
16:54 52.3 °F 50.2 °F 29.6 in WSW 13.6 mph 33.6 mph 92% 0.13 in 87.00 W/m2
16:59 52.2 °F 49.8 °F 29.6 in WSW 15.2 mph 33.6 mph 92% 0.13 in 103.00 W/m2
17:04 52.3 °F 50.2 °F 29.6 in West 19 mph 32.7 mph 92% 0.13 in 64.00 W/m2
17:09 52.3 °F 50.4 °F 29.6 in WSW 14.5 mph 28.2 mph 93% 0.08 in 57.00 W/m2
17:14 52.2 °F 50.5 °F 29.6 in WSW 9.2 mph 26.6 mph 94% 0.06 in 89.00 W/m2
17:19 52 °F 50.5 °F 29.6 in SW 8.3 mph 23.5 mph 95% 0.05 in 79.00 W/m2
17:24 52 °F 50.5 °F 29.6 in SW 10.7 mph 18.3 mph 95% 0.04 in 56.00 W/m2
17:29 52.2 °F 50.7 °F 29.6 in WSW 13 mph 19 mph 95% 0.02 in 23.00 W/m2
17:34 52.3 °F 51.3 °F 29.6 in WSW 8.3 mph 19 mph 96% 0.04 in 19.00 W/m2
17:39 52.3 °F 51.4 °F 29.6 in WSW 6.9 mph 16.8 mph 97% 0.05 in 10.00 W/m2
17:44 51.8 °F 50.7 °F 29.6 in WSW 11.4 mph 28.2 mph 96% 0.05 in 27.00 W/m2
17:49 51.4 °F 50.4 °F 29.6 in NNW 19.7 mph 28.2 mph 96% 0.06 in 36.00 W/m2
17:54 51.8 °F 49.6 °F 29.6 in NNE 13 mph 25.9 mph 92% 0.05 in 32.00 W/m2
17:59 52 °F 49.5 °F 29.6 in West 8.3 mph 24.4 mph 91% 0.05 in 27.00 W/m2
18:04 52.2 °F 49.3 °F 29.6 in SW 9.8 mph 22.8 mph 90% 0.05 in 16.00 W/m2
18:09 51.6 °F 49.6 °F 29.6 in WSW 9.2 mph 22.8 mph 93% 0.05 in 21.00 W/m2
18:14 51.3 °F 49.6 °F 29.6 in WSW 9.8 mph 20.6 mph 94% 0.05 in 17.00 W/m2
18:19 51.1 °F 49.5 °F 29.6 in West 9.2 mph 19 mph 94% 0.05 in 13.00 W/m2
18:24 51.6 °F 49.5 °F 29.6 in WNW 13 mph 22.1 mph 92% 0.05 in 16.00 W/m2
18:29 52.2 °F 47.8 °F 29.6 in West 15.2 mph 22.1 mph 85% 0.05 in 12.00 W/m2
18:34 52.5 °F 47.5 °F 29.6 in NW 14.5 mph 22.8 mph 83% 0.05 in 10.00 W/m2
18:39 52.7 °F 46.8 °F 29.6 in West 15.2 mph 25.1 mph 80% 0.04 in 16.00 W/m2
18:44 52.7 °F 46.8 °F 29.6 in WSW 9.2 mph 25.1 mph 80% 0.02 in 2.00 W/m2
18:49 52.5 °F 47.1 °F 29.6 in SW 13 mph 25.9 mph 82% 0.01 in 0.00 W/m2
18:54 51.6 °F 47.3 °F 29.6 in WSW 20.6 mph 25.9 mph 85% 0.02 in 0.00 W/m2
18:59 50.9 °F 47.5 °F 29.6 in WSW 10.7 mph 23.5 mph 88% 0.04 in 1.00 W/m2
19:04 51.3 °F 48 °F 29.7 in SW 15.2 mph 23.5 mph 89% 0.04 in 0.00 W/m2
19:09 51.6 °F 47.8 °F 29.7 in SW 19.7 mph 27.3 mph 87% 0.04 in 0.00 W/m2
19:14 51.3 °F 46.9 °F 29.7 in SW 10.7 mph 27.3 mph 85% 0.04 in 0.00 W/m2
19:19 51.4 °F 47.5 °F 29.7 in WSW 18.3 mph 27.3 mph 86% 0.04 in 0.00 W/m2
19:24 51.6 °F 47.3 °F 29.7 in SW 12.1 mph 27.3 mph 85% 0.04 in 0.00 W/m2
19:29 51.6 °F 46.9 °F 29.7 in SW 15.9 mph 26.6 mph 84% 0.02 in 0.00 W/m2
19:34 51.6 °F 47.3 °F 29.7 in WSW 9.2 mph 25.9 mph 85% 0.02 in 0.00 W/m2
19:39 51.6 °F 47.3 °F 29.7 in WSW 19 mph 27.3 mph 85% 0.02 in 0.00 W/m2
19:44 51.4 °F 47.5 °F 29.7 in WSW 15.2 mph 27.3 mph 86% 0.02 in 0.00 W/m2
19:49 51.8 °F 47.1 °F 29.7 in WSW 13.6 mph 24.4 mph 84% 0.02 in 0.00 W/m2
19:54 52 °F 47.3 °F 29.7 in WSW 19 mph 32 mph 84% 0 in 0.00 W/m2
19:59 50.7 °F 47.3 °F 29.7 in WSW 13 mph 32 mph 88% 0 in 0.00 W/m2
20:04 50.4 °F 47.1 °F 29.7 in West 15.2 mph 32 mph 89% 0 in 0.00 W/m2
20:09 51.3 °F 47.5 °F 29.7 in West 14.5 mph 25.9 mph 87% 0 in 0.00 W/m2
20:14 51.6 °F 46.9 °F 29.7 in West 15.2 mph 25.9 mph 84% 0 in 0.00 W/m2
20:19 51.8 °F 46.6 °F 29.7 in West 17.4 mph 25.9 mph 82% 0 in 0.00 W/m2
20:24 52 °F 46.8 °F 29.7 in WSW 9.2 mph 25.9 mph 82% 0 in 0.00 W/m2
20:29 51.1 °F 47.5 °F 29.7 in SW 21.3 mph 30.4 mph 87% 0 in 0.00 W/m2
20:34 49.6 °F 47.7 °F 29.7 in SW 18.3 mph 30.4 mph 93% 0.01 in 0.00 W/m2
20:39 49.5 °F 48 °F 29.7 in SW 15.9 mph 29.8 mph 95% 0.01 in 0.00 W/m2
20:44 49.6 °F 48.4 °F 29.7 in SW 11.4 mph 24.4 mph 95% 0.01 in 0.00 W/m2
20:49 49.8 °F 48.4 °F 29.7 in SW 12.1 mph 21.3 mph 95% 0.01 in 0.00 W/m2
20:54 49.8 °F 48.4 °F 29.7 in WSW 12.1 mph 21.3 mph 95% 0.01 in 0.00 W/m2
20:59 50 °F 48.4 °F 29.7 in West 22.8 mph 28.9 mph 94% 0.01 in 0.00 W/m2
21:04 49.8 °F 48.4 °F 29.7 in WNW 13 mph 29.8 mph 95% 0.02 in 0.00 W/m2
21:09 49.8 °F 48.9 °F 29.7 in NW 17.4 mph 30.4 mph 97% 0.04 in 0.00 W/m2
21:14 49.5 °F 48.6 °F 29.8 in West 13.6 mph 30.4 mph 97% 0.05 in 0.00 W/m2
21:15 49.5 °F 48.6 °F 29.8 in West 17.4 mph 30.4 mph 97% 0.05 in 0.00 W/m2
21:34 48.9 °F 48.4 °F 29.8 in North 10.7 mph 25.9 mph 98% 0.07 in 0.00 W/m2
21:39 48.9 °F 48.4 °F 29.8 in North 14.5 mph 25.9 mph 98% 0.08 in 0.00 W/m2
21:44 49.3 °F 48.7 °F 29.8 in North 13.6 mph 26.6 mph 98% 0.08 in 0.00 W/m2
21:49 49.1 °F 48 °F 29.8 in North 14.5 mph 26.6 mph 96% 0.09 in 0.00 W/m2
21:54 49.6 °F 48.4 °F 29.8 in NNW 16.8 mph 27.3 mph 95% 0.11 in 0.00 W/m2
21:59 49.6 °F 48.4 °F 29.8 in West 15.9 mph 27.3 mph 95% 0.11 in 0.00 W/m2
22:04 50 °F 48 °F 29.8 in West 17.4 mph 26.6 mph 93% 0.09 in 0.00 W/m2
22:09 49.6 °F 48 °F 29.8 in North 17.4 mph 28.9 mph 94% 0.09 in 0.00 W/m2
22:14 49.8 °F 47.8 °F 29.8 in NNE 15.2 mph 28.9 mph 93% 0.08 in 0.00 W/m2
22:19 49.6 °F 47.7 °F 29.8 in NNE 13.6 mph 32 mph 93% 0.07 in 0.00 W/m2
22:24 49.3 °F 47.7 °F 29.8 in NNE 13 mph 32 mph 94% 0.08 in 0.00 W/m2
22:29 50 °F 47.5 °F 29.8 in NNE 13.6 mph 27.3 mph 91% 0.07 in 0.00 W/m2
22:34 50 °F 47.8 °F 29.8 in NNE 11.4 mph 27.3 mph 92% 0.07 in 0.00 W/m2
22:39 49.5 °F 47.8 °F 29.8 in NNE 13.6 mph 22.8 mph 94% 0.06 in 0.00 W/m2
22:44 49.1 °F 47.7 °F 29.8 in North 9.8 mph 22.8 mph 95% 0.05 in 0.00 W/m2
22:49 49.3 °F 48.2 °F 29.8 in North 11.4 mph 21.3 mph 96% 0.05 in 0.00 W/m2
22:54 50 °F 48 °F 29.8 in North 11.4 mph 25.1 mph 93% 0.05 in 0.00 W/m2
22:59 49.5 °F 47.8 °F 29.8 in NNE 16.8 mph 25.1 mph 94% 0.09 in 0.00 W/m2
23:04 49.3 °F 47.8 °F 29.8 in North 17.4 mph 26.6 mph 95% 0.09 in 0.00 W/m2
23:09 49.5 °F 48 °F 29.8 in NNW 19.7 mph 31.1 mph 95% 0.08 in 0.00 W/m2
23:14 49.3 °F 47.1 °F 29.8 in North 11.4 mph 31.1 mph 92% 0.08 in 0.00 W/m2
23:19 48.9 °F 46.8 °F 29.8 in North 15.9 mph 31.1 mph 92% 0.07 in 0.00 W/m2
23:24 49.1 °F 47.1 °F 29.8 in North 15.9 mph 22.1 mph 93% 0.07 in 0.00 W/m2
23:29 49.5 °F 46.9 °F 29.8 in North 14.5 mph 30.4 mph 91% 0.08 in 0.00 W/m2
23:34 48.7 °F 45.9 °F 29.8 in NNE 19.7 mph 30.4 mph 90% 0.07 in 0.00 W/m2
23:39 48.2 °F 45.1 °F 29.8 in NNE 15.9 mph 28.9 mph 89% 0.08 in 0.00 W/m2
23:44 48.7 °F 45.9 °F 29.8 in NNE 9.8 mph 28.2 mph 90% 0.08 in 0.00 W/m2
23:49 48.9 °F 46.8 °F 29.8 in WNW 17.4 mph 26.6 mph 92% 0.08 in 0.00 W/m2
23:54 48.4 °F 45.7 °F 29.8 in WNW 15.9 mph 26.6 mph 90% 0.08 in 0.00 W/m2
23:59 48.6 °F 46 °F 29.8 in NNW 7.6 mph 26.6 mph 91% 0.04 in 0.00 W/m2
Northern Hawkes Bay. New Zealand Historic Data
Compliments of Weather Underground - 2 mb